createdAt,value
2019-04-23T00:02:34.369Z,14.10
2019-04-23T00:05:08.044Z,14.02
2019-04-23T00:32:08.151Z,13.22
2019-04-23T00:34:42.558Z,13.26
2019-04-23T00:37:18.741Z,13.19
2019-04-23T00:39:46.832Z,13.18
2019-04-23T00:42:20.254Z,13.32
2019-04-23T00:44:51.765Z,13.33
2019-04-23T00:47:25.550Z,13.44
2019-04-23T00:50:07.763Z,13.30
2019-04-23T00:57:38.840Z,13.20
2019-04-23T01:02:49.237Z,13.17
2019-04-23T01:05:18.708Z,13.19
2019-04-23T01:10:36.272Z,12.97
2019-04-23T01:13:14.739Z,12.94
2019-04-23T01:15:46.417Z,12.86
2019-04-23T01:18:30.550Z,12.74
2019-04-23T01:20:54.784Z,12.84
2019-04-23T01:23:36.448Z,12.92
2019-04-23T01:26:20.929Z,12.83
2019-04-23T01:29:01.699Z,12.89
2019-04-23T01:31:33.171Z,12.91
2019-04-23T01:34:18.376Z,12.89
2019-04-23T01:36:36.398Z,12.83
2019-04-23T01:41:50.722Z,12.61
2019-04-23T01:44:22.201Z,12.58
2019-04-23T01:46:54.299Z,12.54
2019-04-23T01:49:39.065Z,12.59
2019-04-23T01:52:00.306Z,12.58
2019-04-23T01:54:37.142Z,12.43
2019-04-23T01:57:11.023Z,12.35
2019-04-23T01:59:38.675Z,12.26
2019-04-23T02:02:29.811Z,12.30
2019-04-23T02:04:51.465Z,12.32
2019-04-23T02:10:07.055Z,12.30
2019-04-23T02:12:42.077Z,12.27
2019-04-23T02:15:12.154Z,12.18
2019-04-23T02:17:45.524Z,12.13
2019-04-23T02:20:25.906Z,12.04
2019-04-23T02:23:30.127Z,12.00
2019-04-23T02:26:04.777Z,12.03
2019-04-23T02:28:34.082Z,12.03
2019-04-23T02:31:21.302Z,12.02
2019-04-23T02:38:50.525Z,11.81
2019-04-23T02:41:26.650Z,11.78
2019-04-23T02:43:59.584Z,11.76
2019-04-23T02:46:13.244Z,11.67
2019-04-23T02:49:07.196Z,11.66
2019-04-23T02:51:39.927Z,11.59
2019-04-23T02:54:16.370Z,11.55
2019-04-23T02:56:48.669Z,11.50
2019-04-23T03:01:58.396Z,11.32
2019-04-23T03:04:29.112Z,11.29
2019-04-23T03:07:14.062Z,11.23
2019-04-23T03:12:06.517Z,11.16
2019-04-23T03:14:43.558Z,11.19
2019-04-23T03:17:11.181Z,11.18
2019-04-23T03:20:08.010Z,11.22
2019-04-23T03:22:56.119Z,11.27
2019-04-23T03:25:35.881Z,11.23
2019-04-23T03:28:26.900Z,11.15
2019-04-23T03:43:38.928Z,10.85
2019-04-23T03:48:47.679Z,10.79
2019-04-23T03:51:30.418Z,10.76
2019-04-23T03:56:34.555Z,10.66
2019-04-23T04:01:45.799Z,10.64
2019-04-23T04:04:22.895Z,10.67
2019-04-23T04:11:51.628Z,10.69
2019-04-23T04:14:33.863Z,10.62
2019-04-23T04:19:31.643Z,10.51
2019-04-23T04:22:11.686Z,10.43
2019-04-23T04:27:05.621Z,10.39
2019-04-23T04:29:47.426Z,10.40
2019-04-23T04:32:15.100Z,10.36
2019-04-23T04:37:35.710Z,10.45
2019-04-23T04:42:15.274Z,10.39
2019-04-23T04:47:36.794Z,10.35
2019-04-23T04:50:22.233Z,10.32
2019-04-23T04:52:46.953Z,10.32
2019-04-23T04:55:41.253Z,10.32
2019-04-23T05:00:34.740Z,10.33
2019-04-23T05:03:12.674Z,10.35
2019-04-23T05:08:15.564Z,10.49
2019-04-23T05:10:55.889Z,10.55
2019-04-23T05:15:53.795Z,10.54
2019-04-23T05:19:06.732Z,10.62
2019-04-23T05:21:36.857Z,10.57
2019-04-23T05:24:35.183Z,10.60
2019-04-23T05:29:50.751Z,10.69
2019-04-23T05:32:12.148Z,10.75
2019-04-23T05:34:54.099Z,10.77
2019-04-23T05:37:28.281Z,10.84
2019-04-23T05:39:59.115Z,10.89
2019-04-23T05:42:26.553Z,10.97
2019-04-23T05:47:56.714Z,11.08
2019-04-23T05:50:29.160Z,11.18
2019-04-23T05:52:52.895Z,11.30
2019-04-23T05:55:36.835Z,11.41
2019-04-23T05:58:08.581Z,11.54
2019-04-23T06:00:45.041Z,11.67
2019-04-23T06:03:24.799Z,11.75
2019-04-23T06:06:11.344Z,11.85
2019-04-23T06:08:47.126Z,11.95
2019-04-23T06:11:28.175Z,12.01
2019-04-23T06:14:02.095Z,12.15
2019-04-23T06:16:36.295Z,12.29
2019-04-23T06:19:07.117Z,12.47
2019-04-23T06:21:44.360Z,12.61
2019-04-23T06:24:17.837Z,12.73
2019-04-23T06:26:49.325Z,12.89
2019-04-23T06:31:55.225Z,13.18
2019-04-23T06:37:03.237Z,13.49
2019-04-23T06:39:38.035Z,13.61
2019-04-23T06:42:08.236Z,13.72
2019-04-23T06:44:45.737Z,13.83
2019-04-23T06:47:16.587Z,14.00
2019-04-23T06:52:21.584Z,14.37
2019-04-23T06:57:25.523Z,14.70
2019-04-23T07:00:06.361Z,14.81
2019-04-23T07:02:39.199Z,14.92
2019-04-23T07:10:20.057Z,15.23
2019-04-23T07:13:01.283Z,15.22
2019-04-23T07:15:55.255Z,15.29
2019-04-23T07:18:03.845Z,15.39
2019-04-23T07:20:33.500Z,15.55
2019-04-23T07:25:56.791Z,15.63
2019-04-23T07:28:26.146Z,15.86
2019-04-23T07:31:00.525Z,15.91
2019-04-23T07:33:35.092Z,15.84
2019-04-23T07:36:10.004Z,15.80
2019-04-23T07:38:54.673Z,16.00
2019-04-23T07:41:52.031Z,16.29
2019-04-23T07:44:43.783Z,16.46
2019-04-23T07:47:20.475Z,16.84
2019-04-23T07:50:03.788Z,16.81
2019-04-23T07:55:04.516Z,17.10
2019-04-23T07:57:35.025Z,17.39
2019-04-23T08:00:29.695Z,17.68
2019-04-23T08:02:35.841Z,17.90
2019-04-23T08:05:32.027Z,18.27
2019-04-23T08:07:58.826Z,18.80
2019-04-23T08:10:29.739Z,19.07
2019-04-23T08:13:02.718Z,19.22
2019-04-23T08:15:28.044Z,19.38
2019-04-23T08:17:58.832Z,19.59
2019-04-23T08:20:40.619Z,20.04
2019-04-23T08:23:12.599Z,19.98
2019-04-23T08:28:58.336Z,20.28
2019-04-23T08:31:27.492Z,20.35
2019-04-23T08:34:03.005Z,20.61
2019-04-23T08:36:29.403Z,21.22
2019-04-23T08:38:57.541Z,21.28
2019-04-23T08:41:33.442Z,21.48
2019-04-23T08:44:09.178Z,21.53
2019-04-23T08:47:03.620Z,21.91
2019-04-23T08:49:46.817Z,21.56
2019-04-23T08:52:39.601Z,21.80
2019-04-23T08:55:07.620Z,21.52
2019-04-23T08:57:29.019Z,21.56
2019-04-23T09:00:02.456Z,21.51
2019-04-23T09:02:40.395Z,21.82
2019-04-23T09:05:24.892Z,22.00
2019-04-23T09:07:54.112Z,22.20
2019-04-23T09:10:23.356Z,22.00
2019-04-23T09:13:01.111Z,21.94
2019-04-23T09:18:04.284Z,22.72
2019-04-23T09:20:34.292Z,22.83
2019-04-23T09:23:05.814Z,22.67
2019-04-23T09:28:25.823Z,23.62
2019-04-23T09:31:12.409Z,23.83
2019-04-23T09:36:45.625Z,24.18
2019-04-23T09:39:51.182Z,24.34
2019-04-23T09:48:11.873Z,24.62
2019-04-23T09:50:54.100Z,24.69
2019-04-23T09:55:51.413Z,24.60
2019-04-23T09:58:32.510Z,24.49
2019-04-23T10:03:57.742Z,24.29
2019-04-23T10:06:20.854Z,24.59
2019-04-23T10:08:51.901Z,23.54
2019-04-23T10:11:28.404Z,23.90
2019-04-23T10:14:08.354Z,23.89
2019-04-23T10:16:41.352Z,23.87
2019-04-23T10:19:12.232Z,23.56
2019-04-23T10:21:49.242Z,23.81
2019-04-23T10:24:27.547Z,23.69
2019-04-23T10:26:57.796Z,23.75
2019-04-23T10:29:36.228Z,24.21
2019-04-23T10:32:07.516Z,24.03
2019-04-23T10:34:52.444Z,24.03
2019-04-23T10:37:11.469Z,24.17
2019-04-23T10:39:54.025Z,24.16
2019-04-23T10:42:21.595Z,23.97
2019-04-23T10:45:27.188Z,23.77
2019-04-23T10:48:38.853Z,23.64
2019-04-23T10:51:25.078Z,23.88
2019-04-23T10:54:19.585Z,23.76
2019-04-23T10:56:43.255Z,23.79
2019-04-23T10:59:28.727Z,23.73
2019-04-23T11:02:21.640Z,24.13
2019-04-23T11:07:27.031Z,23.87
2019-04-23T11:17:59.316Z,23.63
2019-04-23T11:20:39.631Z,23.60
2019-04-23T11:22:54.893Z,23.65
2019-04-23T11:25:38.025Z,23.80
2019-04-23T11:28:22.725Z,23.67
2019-04-23T11:31:15.591Z,23.57
2019-04-23T11:33:39.598Z,23.57
2019-04-23T11:36:43.564Z,23.71
2019-04-23T11:38:58.493Z,23.79
2019-04-23T11:44:02.315Z,24.11
2019-04-23T11:49:29.546Z,24.24
2019-04-23T11:54:10.273Z,24.52
2019-04-23T11:59:31.683Z,24.56
2019-04-23T12:02:07.171Z,24.67
2019-04-23T12:07:57.592Z,25.18
2019-04-23T12:10:54.407Z,25.04
2019-04-23T12:13:11.895Z,25.03
2019-04-23T12:15:51.787Z,24.90
2019-04-23T12:18:24.156Z,24.84
2019-04-23T12:20:57.205Z,24.99
2019-04-23T12:23:42.513Z,25.18
2019-04-23T12:28:50.098Z,25.00
2019-04-23T12:31:26.678Z,25.06
2019-04-23T12:33:57.507Z,25.08
2019-04-23T12:36:36.924Z,25.05
2019-04-23T12:39:04.634Z,25.15
2019-04-23T12:41:43.358Z,25.30
2019-04-23T12:44:17.979Z,25.69
2019-04-23T12:49:47.933Z,26.50
2019-04-23T12:59:49.848Z,25.59
2019-04-23T13:02:32.769Z,25.64
2019-04-23T13:05:05.172Z,25.85
2019-04-23T13:07:54.025Z,25.56
2019-04-23T13:10:30.251Z,25.48
2019-04-23T13:18:26.820Z,25.48
2019-04-23T13:20:36.876Z,25.66
2019-04-23T13:23:19.846Z,26.01
2019-04-23T13:26:18.130Z,26.03
2019-04-23T13:28:46.977Z,26.55
2019-04-23T13:31:20.271Z,26.80
2019-04-23T13:33:58.636Z,27.21
2019-04-23T13:36:36.388Z,27.29
2019-04-23T13:39:10.242Z,28.30
2019-04-23T13:41:31.692Z,29.48
2019-04-23T13:44:08.550Z,30.27
2019-04-23T13:46:49.460Z,31.61
2019-04-23T13:49:28.465Z,32.23
2019-04-23T13:52:05.921Z,32.70
2019-04-23T13:57:33.275Z,33.07
2019-04-23T14:02:23.540Z,34.85
2019-04-23T14:04:58.380Z,35.03
2019-04-23T14:07:38.440Z,34.18
2019-04-23T14:10:19.119Z,34.65
2019-04-23T14:15:24.204Z,34.44
2019-04-23T14:20:28.074Z,34.69
2019-04-23T14:25:47.927Z,31.63
2019-04-23T14:30:54.231Z,28.05
2019-04-23T14:38:40.049Z,26.48
2019-04-23T14:41:12.456Z,26.12
2019-04-23T14:43:31.461Z,26.00
2019-04-23T14:51:39.720Z,26.13
2019-04-23T14:53:48.559Z,25.67
2019-04-23T14:56:31.538Z,25.73
2019-04-23T14:59:02.827Z,25.74
2019-04-23T15:01:35.692Z,25.84
2019-04-23T15:04:05.638Z,25.78
2019-04-23T15:06:43.261Z,25.74
2019-04-23T15:09:36.173Z,25.86
2019-04-23T15:11:53.362Z,26.19
2019-04-23T15:14:23.200Z,26.39
2019-04-23T15:24:50.153Z,24.50
2019-04-23T15:29:45.880Z,23.89
2019-04-23T15:32:34.627Z,23.74
2019-04-23T15:35:05.414Z,23.79
2019-04-23T15:37:58.354Z,24.01
2019-04-23T15:40:15.231Z,24.26
2019-04-23T15:42:45.285Z,24.40
2019-04-23T15:47:49.352Z,24.58
2019-04-23T15:50:37.320Z,24.35
2019-04-23T15:52:58.235Z,24.15
2019-04-23T15:55:28.168Z,24.12
2019-04-23T15:58:07.666Z,24.39
2019-04-23T16:00:30.634Z,24.73
2019-04-23T16:02:41.085Z,24.53
2019-04-23T16:05:15.113Z,24.55
2019-04-23T16:08:02.214Z,24.53
2019-04-23T16:13:40.588Z,24.59
2019-04-23T16:16:10.650Z,24.38
2019-04-23T16:19:07.731Z,24.27
2019-04-23T16:29:43.857Z,23.60
2019-04-23T16:32:18.850Z,23.44
2019-04-23T16:34:40.183Z,23.34
2019-04-23T16:37:20.074Z,23.20
2019-04-23T16:40:01.859Z,23.07
2019-04-23T16:42:30.050Z,23.03
2019-04-23T16:45:12.535Z,22.97
2019-04-23T16:47:43.103Z,22.87
2019-04-23T16:50:09.353Z,22.80
2019-04-23T16:52:53.680Z,22.69
2019-04-23T16:55:16.645Z,22.90
2019-04-23T16:58:01.582Z,22.83
2019-04-23T17:00:31.830Z,22.70
2019-04-23T17:03:12.440Z,22.84
2019-04-23T17:13:55.443Z,22.29
2019-04-23T17:21:16.922Z,21.97
2019-04-23T17:24:20.867Z,21.83
2019-04-23T17:29:38.544Z,21.66
2019-04-23T17:32:21.088Z,21.65
2019-04-23T17:35:24.691Z,21.59
2019-04-23T17:38:10.845Z,21.39
2019-04-23T17:41:01.961Z,21.31
2019-04-23T17:43:24.065Z,21.17
2019-04-23T17:45:57.217Z,21.07
2019-04-23T17:48:27.299Z,20.80
2019-04-23T17:51:50.984Z,20.62
2019-04-23T17:54:13.704Z,20.42
2019-04-23T17:57:00.330Z,20.16
2019-04-23T18:02:16.553Z,19.67
2019-04-23T18:04:44.004Z,19.49
2019-04-23T18:07:41.040Z,19.31
2019-04-23T18:16:04.124Z,18.70
2019-04-23T18:18:48.456Z,18.52
2019-04-23T18:21:44.189Z,18.37
2019-04-23T18:24:27.515Z,18.33
2019-04-23T18:27:21.738Z,18.37
2019-04-23T18:30:08.179Z,18.30
2019-04-23T18:41:01.265Z,18.21
2019-04-23T18:51:07.833Z,17.81
2019-04-23T18:56:41.783Z,17.60
2019-04-23T19:01:33.524Z,17.36
2019-04-23T19:07:57.123Z,17.25
2019-04-23T19:13:09.686Z,17.09
2019-04-23T19:15:52.578Z,16.99
2019-04-23T19:18:36.037Z,16.89
2019-04-23T19:21:36.319Z,16.85
2019-04-23T19:23:47.535Z,16.85
2019-04-23T19:26:40.860Z,16.76
2019-04-23T19:34:35.666Z,16.64
2019-04-23T19:42:50.268Z,16.51
2019-04-23T19:45:24.527Z,16.51
2019-04-23T19:47:58.682Z,16.43
2019-04-23T19:50:50.430Z,16.38
2019-04-23T19:56:08.856Z,16.23
2019-04-23T20:01:23.444Z,16.11
2019-04-23T20:07:00.726Z,16.04
2019-04-23T20:09:40.030Z,15.98
2019-04-23T20:14:41.789Z,15.90
2019-04-23T20:17:31.897Z,15.85
2019-04-23T20:19:44.077Z,15.83
2019-04-23T20:22:48.953Z,15.71
2019-04-23T20:30:46.938Z,15.55
2019-04-23T20:36:05.576Z,15.46
2019-04-23T20:38:53.238Z,15.38
2019-04-23T20:41:21.121Z,15.36
2019-04-23T20:43:57.605Z,15.30
2019-04-23T20:46:35.231Z,15.24
2019-04-23T20:49:28.266Z,15.23
2019-04-23T20:51:47.907Z,15.16
2019-04-23T20:54:26.558Z,15.12
2019-04-23T21:00:01.525Z,14.95
2019-04-23T21:03:30.916Z,14.92
2019-04-23T21:05:41.211Z,14.84
2019-04-23T21:08:51.845Z,14.74
2019-04-23T21:11:06.983Z,14.65
2019-04-23T21:14:01.622Z,14.59
2019-04-23T21:16:15.281Z,14.58
2019-04-23T21:18:53.558Z,14.54
2019-04-23T21:26:49.913Z,14.40
2019-04-23T21:29:13.131Z,14.39
2019-04-23T21:31:53.855Z,14.40
2019-04-23T21:34:24.919Z,14.45
2019-04-23T21:36:58.343Z,14.34
2019-04-23T21:40:29.550Z,14.27
2019-04-23T21:43:09.381Z,14.16
2019-04-23T21:45:57.835Z,14.03
2019-04-23T21:48:30.940Z,13.95
2019-04-23T21:50:57.543Z,13.85
2019-04-23T21:53:29.155Z,13.83
2019-04-23T21:56:06.834Z,13.78
2019-04-23T21:58:49.115Z,13.71
2019-04-23T22:04:08.636Z,13.61
2019-04-23T22:06:35.562Z,13.58
2019-04-23T22:09:04.302Z,13.62
2019-04-23T22:14:09.927Z,13.47
2019-04-23T22:16:50.525Z,13.36
2019-04-23T22:19:14.937Z,13.29
2019-04-23T22:21:59.185Z,13.26
2019-04-23T22:24:31.629Z,13.22
2019-04-23T22:27:02.794Z,13.12
2019-04-23T22:29:41.983Z,13.11
2019-04-23T22:32:12.595Z,13.02
2019-04-23T22:34:55.952Z,13.01
2019-04-23T22:40:02.728Z,12.93
2019-04-23T22:47:43.513Z,12.75
2019-04-23T22:50:14.407Z,12.72
2019-04-23T22:52:48.807Z,12.72
2019-04-23T22:55:27.725Z,12.70
2019-04-23T22:58:04.761Z,12.63
2019-04-23T23:00:30.028Z,12.60
2019-04-23T23:03:19.668Z,12.51
2019-04-23T23:06:04.352Z,12.50
2019-04-23T23:08:20.488Z,12.52
2019-04-23T23:10:57.239Z,12.43
2019-04-23T23:13:35.713Z,12.35
2019-04-23T23:16:01.769Z,12.33
2019-04-23T23:18:59.438Z,12.25
2019-04-23T23:23:48.120Z,12.09
2019-04-23T23:31:29.510Z,12.02
2019-04-23T23:34:06.827Z,11.99
2019-04-23T23:36:54.923Z,11.96
2019-04-23T23:41:57.213Z,11.84
2019-04-23T23:44:44.915Z,11.78
2019-04-23T23:47:18.237Z,11.78
2019-04-23T23:50:15.929Z,11.76
2019-04-23T23:52:39.013Z,11.78
2019-04-23T23:55:16.060Z,11.72
2019-04-23T23:57:44.418Z,11.67
